Profiler II — CZ2496 — position and weather

sailwx.info

Track history (hours):
 
Tides and Currents Weather Stations Pressure Air Temp Water Temp Dewpoint Dewpoint Depression Visibility Wind Speed Wind Dir Waves Ship Positions

Profiler II

Last reported at 2017-Jan-12 23:24 UTC. Time now 2017-Jan-20 22:01 UTC.
Position N 49°12' W 122°55'.

Type: Other ship. MMSI: 316002054.

Date/timePositionNaut miles runAvg speedWind from/ knotsBaromVisibWave heightAir tempDewpointWater temp
2017-Jan-12 23:24N 49°12' W 122°55'910.9
2017-Jan-12 22:33N 49°07' W 123°07'2 1.9
2017-Jan-12 21:33N 49°07' W 123°10'0 0.3
2017-Jan-12 20:33N 49°07' W 123°10'1 0.6
2017-Jan-12 19:33N 49°06' W 123°09'0 0.1
2017-Jan-12 18:33N 49°07' W 123°09'2 1.6
2017-Jan-12 17:19N 49°07' W 123°11'8 9.9
2017-Jan-12 16:33N 49°09' W 123°00'1 0.0
2017-Jan-10 23:33N 49°09' W 123°01'5 5.4
2017-Jan-10 22:33N 49°07' W 123°09'0 0.2
2017-Jan-10 21:33N 49°06' W 123°08'1 0.9
2017-Jan-10 20:33N 49°07' W 123°07'0 0.3
2017-Jan-10 19:33N 49°07' W 123°07'0 0.2
2017-Jan-10 18:33N 49°07' W 123°06'0 0.0
2017-Jan-10 17:33N 49°07' W 123°06'7 7.0
2017-Jan-10 16:33N 49°10' W 122°57'1 0.0
2017-Jan-09 23:34N 49°09' W 122°57'6 6.3
2017-Jan-09 22:33N 49°07' W 123°06'0 0.2
2017-Jan-09 21:33N 49°07' W 123°06'2 2.2
2017-Jan-09 20:33N 49°08' W 123°03'0 0.2
2017-Jan-09 19:33N 49°08' W 123°04'1 1.1
2017-Jan-09 18:33N 49°09' W 123°02'0 0.3
2017-Jan-09 17:33N 49°09' W 123°02'5 5.2
2017-Jan-09 16:33N 49°12' W 122°55'  
2017-Jan-05 22:33N 49°12' W 122°55'0 0.3
2017-Jan-05 21:33N 49°12' W 122°55'  
Track history (hours):
 
Tides and Currents Weather Stations Pressure Air Temp Water Temp Dewpoint Dewpoint Depression Visibility Wind Speed Wind Dir Waves Ship Positions

Profiler II

Last reported at 2017-Jan-12 23:24 UTC. Time now 2017-Jan-20 22:01 UTC.
Position N 49°12' W 122°55'.

Type: Other ship. MMSI: 316002054.

Date/timePositionNaut miles runAvg speedWind from/ knotsBaromVisibWave heightAir tempDewpointWater temp
2017-Jan-12 23:24N 49°12' W 122°55'910.9
2017-Jan-12 22:33N 49°07' W 123°07'2 1.9
2017-Jan-12 21:33N 49°07' W 123°10'0 0.3
2017-Jan-12 20:33N 49°07' W 123°10'1 0.6
2017-Jan-12 19:33N 49°06' W 123°09'0 0.1
2017-Jan-12 18:33N 49°07' W 123°09'2 1.6
2017-Jan-12 17:19N 49°07' W 123°11'8 9.9
2017-Jan-12 16:33N 49°09' W 123°00'1 0.0
2017-Jan-10 23:33N 49°09' W 123°01'5 5.4
2017-Jan-10 22:33N 49°07' W 123°09'0 0.2
2017-Jan-10 21:33N 49°06' W 123°08'1 0.9
2017-Jan-10 20:33N 49°07' W 123°07'0 0.3
2017-Jan-10 19:33N 49°07' W 123°07'0 0.2
2017-Jan-10 18:33N 49°07' W 123°06'0 0.0
2017-Jan-10 17:33N 49°07' W 123°06'7 7.0
2017-Jan-10 16:33N 49°10' W 122°57'1 0.0
2017-Jan-09 23:34N 49°09' W 122°57'6 6.3
2017-Jan-09 22:33N 49°07' W 123°06'0 0.2
2017-Jan-09 21:33N 49°07' W 123°06'2 2.2
2017-Jan-09 20:33N 49°08' W 123°03'0 0.2
2017-Jan-09 19:33N 49°08' W 123°04'1 1.1
2017-Jan-09 18:33N 49°09' W 123°02'0 0.3
2017-Jan-09 17:33N 49°09' W 123°02'5 5.2
2017-Jan-09 16:33N 49°12' W 122°55'  
2017-Jan-05 22:33N 49°12' W 122°55'0 0.3
2017-Jan-05 21:33N 49°12' W 122°55'  

Dump ship's entire track history